Terminal Aerodrome Forecast
Issued by NWS Bismarck, ND

Home | Current Version | Previous Version | Graphics & Text | Print | Product List | Glossary On
Versions: 1 2 3 4 5 6 7 8 9 10 11 12 13 14 15 16 17 18 19 20 21
463
FTUS43 KBIS 292228 AAA
TAFISN
TAF AMD
KISN 292228Z 2922/3018 32024G32KT P6SM VCSH OVC020
     FM300100 32022KT P6SM -SN OVC010
     FM301000 32016KT P6SM -SN OVC008
     FM301200 32012KT P6SM OVC008
     FM301300 32011KT P6SM OVC015
     FM301700 32010KT P6SM OVC008=

USA.gov is the U.S. government's official web portal to all federal, state and local government web resources and services.